sensor_id;sensor_type;location;lat;lon;timestamp;P1;durP1;ratioP1;P2;durP2;ratioP2
78169;SDS011;67412;49.892;14.490;2024-01-15T00:01:37;12.43;;;4.47;;
78169;SDS011;67412;49.892;14.490;2024-01-15T00:04:02;10.82;;;2.90;;
78169;SDS011;67412;49.892;14.490;2024-01-15T00:06:27;8.57;;;2.85;;
78169;SDS011;67412;49.892;14.490;2024-01-15T00:08:53;10.90;;;3.17;;
78169;SDS011;67412;49.892;14.490;2024-01-15T00:11:19;11.05;;;3.45;;
78169;SDS011;67412;49.892;14.490;2024-01-15T00:13:44;10.90;;;3.25;;
78169;SDS011;67412;49.892;14.490;2024-01-15T00:16:09;4.93;;;2.15;;
78169;SDS011;67412;49.892;14.490;2024-01-15T00:18:35;7.93;;;2.78;;
78169;SDS011;67412;49.892;14.490;2024-01-15T00:21:00;10.77;;;3.38;;
78169;SDS011;67412;49.892;14.490;2024-01-15T00:23:26;13.98;;;3.70;;
78169;SDS011;67412;49.892;14.490;2024-01-15T00:25:51;14.45;;;4.65;;
78169;SDS011;67412;49.892;14.490;2024-01-15T00:28:16;6.18;;;1.85;;
78169;SDS011;67412;49.892;14.490;2024-01-15T00:30:42;11.25;;;3.53;;
78169;SDS011;67412;49.892;14.490;2024-01-15T00:33:07;13.25;;;3.58;;
78169;SDS011;67412;49.892;14.490;2024-01-15T00:35:32;10.00;;;3.40;;
78169;SDS011;67412;49.892;14.490;2024-01-15T00:37:58;13.38;;;3.50;;
78169;SDS011;67412;49.892;14.490;2024-01-15T00:40:23;10.10;;;3.25;;
78169;SDS011;67412;49.892;14.490;2024-01-15T00:42:50;11.80;;;3.42;;
78169;SDS011;67412;49.892;14.490;2024-01-15T00:45:15;10.00;;;2.97;;
78169;SDS011;67412;49.892;14.490;2024-01-15T00:47:41;10.45;;;3.15;;
78169;SDS011;67412;49.892;14.490;2024-01-15T00:50:06;10.07;;;4.63;;
78169;SDS011;67412;49.892;14.490;2024-01-15T00:52:32;8.45;;;2.78;;
78169;SDS011;67412;49.892;14.490;2024-01-15T00:54:58;12.95;;;3.97;;
78169;SDS011;67412;49.892;14.490;2024-01-15T00:57:23;12.98;;;3.55;;
78169;SDS011;67412;49.892;14.490;2024-01-15T00:59:49;9.10;;;2.50;;
78169;SDS011;67412;49.892;14.490;2024-01-15T01:02:14;12.38;;;2.95;;
78169;SDS011;67412;49.892;14.490;2024-01-15T01:04:40;10.85;;;3.88;;
78169;SDS011;67412;49.892;14.490;2024-01-15T01:07:05;8.00;;;2.80;;
78169;SDS011;67412;49.892;14.490;2024-01-15T01:09:30;10.35;;;3.97;;
78169;SDS011;67412;49.892;14.490;2024-01-15T01:11:56;12.77;;;4.00;;
78169;SDS011;67412;49.892;14.490;2024-01-15T01:14:21;11.07;;;3.88;;
78169;SDS011;67412;49.892;14.490;2024-01-15T01:16:47;12.90;;;3.70;;
78169;SDS011;67412;49.892;14.490;2024-01-15T01:19:12;8.93;;;2.45;;
78169;SDS011;67412;49.892;14.490;2024-01-15T01:21:38;14.10;;;3.97;;
78169;SDS011;67412;49.892;14.490;2024-01-15T01:24:03;14.30;;;3.70;;
78169;SDS011;67412;49.892;14.490;2024-01-15T01:26:29;10.90;;;3.33;;
78169;SDS011;67412;49.892;14.490;2024-01-15T01:28:55;11.85;;;3.53;;
78169;SDS011;67412;49.892;14.490;2024-01-15T01:31:20;12.93;;;4.18;;
78169;SDS011;67412;49.892;14.490;2024-01-15T01:33:45;8.85;;;3.10;;
78169;SDS011;67412;49.892;14.490;2024-01-15T01:36:11;10.52;;;3.25;;
78169;SDS011;67412;49.892;14.490;2024-01-15T01:38:37;11.63;;;3.35;;
78169;SDS011;67412;49.892;14.490;2024-01-15T01:41:02;9.18;;;3.10;;
78169;SDS011;67412;49.892;14.490;2024-01-15T01:43:28;7.97;;;2.55;;
78169;SDS011;67412;49.892;14.490;2024-01-15T01:45:54;10.85;;;2.72;;
78169;SDS011;67412;49.892;14.490;2024-01-15T01:48:23;15.40;;;3.88;;
78169;SDS011;67412;49.892;14.490;2024-01-15T01:50:50;11.02;;;3.05;;
78169;SDS011;67412;49.892;14.490;2024-01-15T01:53:15;14.40;;;3.90;;
78169;SDS011;67412;49.892;14.490;2024-01-15T01:55:41;12.68;;;4.40;;
78169;SDS011;67412;49.892;14.490;2024-01-15T01:58:06;14.65;;;3.97;;
78169;SDS011;67412;49.892;14.490;2024-01-15T02:00:32;14.13;;;3.35;;
78169;SDS011;67412;49.892;14.490;2024-01-15T02:02:58;11.13;;;4.13;;
78169;SDS011;67412;49.892;14.490;2024-01-15T02:05:24;10.07;;;3.17;;
78169;SDS011;67412;49.892;14.490;2024-01-15T02:07:51;13.68;;;4.00;;
78169;SDS011;67412;49.892;14.490;2024-01-15T02:10:17;12.38;;;3.80;;
78169;SDS011;67412;49.892;14.490;2024-01-15T02:12:43;9.90;;;3.33;;
78169;SDS011;67412;49.892;14.490;2024-01-15T02:15:08;12.40;;;3.58;;
78169;SDS011;67412;49.892;14.490;2024-01-15T02:17:34;8.57;;;3.33;;
78169;SDS011;67412;49.892;14.490;2024-01-15T02:19:59;11.98;;;3.65;;
78169;SDS011;67412;49.892;14.490;2024-01-15T02:22:24;9.95;;;2.75;;
78169;SDS011;67412;49.892;14.490;2024-01-15T02:24:50;10.88;;;3.35;;
78169;SDS011;67412;49.892;14.490;2024-01-15T02:27:15;14.35;;;3.92;;
78169;SDS011;67412;49.892;14.490;2024-01-15T02:29:41;12.88;;;3.85;;
78169;SDS011;67412;49.892;14.490;2024-01-15T02:32:08;9.85;;;3.80;;
78169;SDS011;67412;49.892;14.490;2024-01-15T02:34:34;12.32;;;3.35;;
78169;SDS011;67412;49.892;14.490;2024-01-15T02:36:59;9.50;;;2.85;;
78169;SDS011;67412;49.892;14.490;2024-01-15T02:39:24;10.60;;;2.80;;
78169;SDS011;67412;49.892;14.490;2024-01-15T02:41:50;8.20;;;2.78;;
78169;SDS011;67412;49.892;14.490;2024-01-15T02:44:15;10.18;;;3.35;;
78169;SDS011;67412;49.892;14.490;2024-01-15T02:46:40;11.68;;;2.60;;
78169;SDS011;67412;49.892;14.490;2024-01-15T02:49:06;8.40;;;3.08;;
78169;SDS011;67412;49.892;14.490;2024-01-15T02:51:31;18.38;;;4.70;;
78169;SDS011;67412;49.892;14.490;2024-01-15T02:53:56;12.90;;;4.57;;
78169;SDS011;67412;49.892;14.490;2024-01-15T02:56:22;16.05;;;4.78;;
78169;SDS011;67412;49.892;14.490;2024-01-15T02:58:47;11.35;;;3.85;;
78169;SDS011;67412;49.892;14.490;2024-01-15T03:01:13;14.85;;;3.97;;
78169;SDS011;67412;49.892;14.490;2024-01-15T03:03:39;11.15;;;4.35;;
78169;SDS011;67412;49.892;14.490;2024-01-15T03:06:05;12.05;;;5.03;;
78169;SDS011;67412;49.892;14.490;2024-01-15T03:08:31;14.10;;;5.18;;
78169;SDS011;67412;49.892;14.490;2024-01-15T03:10:56;16.17;;;5.03;;
78169;SDS011;67412;49.892;14.490;2024-01-15T03:13:21;9.25;;;3.53;;
78169;SDS011;67412;49.892;14.490;2024-01-15T03:15:47;10.75;;;4.25;;
78169;SDS011;67412;49.892;14.490;2024-01-15T03:18:12;13.13;;;4.93;;
78169;SDS011;67412;49.892;14.490;2024-01-15T03:20:37;12.13;;;3.92;;
78169;SDS011;67412;49.892;14.490;2024-01-15T03:23:03;10.65;;;3.55;;
78169;SDS011;67412;49.892;14.490;2024-01-15T03:25:28;11.52;;;4.93;;
78169;SDS011;67412;49.892;14.490;2024-01-15T03:27:53;7.78;;;3.20;;
78169;SDS011;67412;49.892;14.490;2024-01-15T03:30:19;17.40;;;5.28;;
78169;SDS011;67412;49.892;14.490;2024-01-15T03:32:44;10.07;;;3.78;;
78169;SDS011;67412;49.892;14.490;2024-01-15T03:35:09;11.20;;;3.67;;
78169;SDS011;67412;49.892;14.490;2024-01-15T03:37:35;9.50;;;3.47;;
78169;SDS011;67412;49.892;14.490;2024-01-15T03:40:00;13.73;;;3.80;;
78169;SDS011;67412;49.892;14.490;2024-01-15T03:42:26;13.15;;;3.40;;
78169;SDS011;67412;49.892;14.490;2024-01-15T03:44:51;13.95;;;4.45;;
78169;SDS011;67412;49.892;14.490;2024-01-15T03:47:16;13.70;;;5.30;;
78169;SDS011;67412;49.892;14.490;2024-01-15T03:49:41;12.20;;;3.85;;
78169;SDS011;67412;49.892;14.490;2024-01-15T03:52:07;13.20;;;4.30;;
78169;SDS011;67412;49.892;14.490;2024-01-15T03:54:32;13.50;;;4.80;;
78169;SDS011;67412;49.892;14.490;2024-01-15T03:56:57;8.23;;;2.95;;
78169;SDS011;67412;49.892;14.490;2024-01-15T03:59:23;21.15;;;4.50;;
78169;SDS011;67412;49.892;14.490;2024-01-15T04:01:49;13.55;;;4.97;;
78169;SDS011;67412;49.892;14.490;2024-01-15T04:04:15;13.55;;;3.80;;
78169;SDS011;67412;49.892;14.490;2024-01-15T04:06:41;15.63;;;4.22;;
78169;SDS011;67412;49.892;14.490;2024-01-15T04:09:06;11.32;;;3.45;;
78169;SDS011;67412;49.892;14.490;2024-01-15T04:11:31;10.55;;;3.28;;
78169;SDS011;67412;49.892;14.490;2024-01-15T04:13:57;14.35;;;3.58;;
78169;SDS011;67412;49.892;14.490;2024-01-15T04:16:22;10.48;;;3.13;;
78169;SDS011;67412;49.892;14.490;2024-01-15T04:18:47;11.98;;;4.22;;
78169;SDS011;67412;49.892;14.490;2024-01-15T04:21:12;12.23;;;4.60;;
78169;SDS011;67412;49.892;14.490;2024-01-15T04:23:38;12.20;;;4.60;;
78169;SDS011;67412;49.892;14.490;2024-01-15T04:26:04;13.00;;;4.35;;
78169;SDS011;67412;49.892;14.490;2024-01-15T04:28:29;11.77;;;4.55;;
78169;SDS011;67412;49.892;14.490;2024-01-15T04:30:54;10.60;;;3.20;;
78169;SDS011;67412;49.892;14.490;2024-01-15T04:33:20;11.43;;;3.95;;
78169;SDS011;67412;49.892;14.490;2024-01-15T04:35:45;16.25;;;5.53;;
78169;SDS011;67412;49.892;14.490;2024-01-15T04:38:10;14.68;;;4.78;;
78169;SDS011;67412;49.892;14.490;2024-01-15T04:40:36;14.02;;;4.07;;
78169;SDS011;67412;49.892;14.490;2024-01-15T04:43:01;7.50;;;2.85;;
78169;SDS011;67412;49.892;14.490;2024-01-15T04:45:26;12.55;;;4.78;;
78169;SDS011;67412;49.892;14.490;2024-01-15T04:47:55;8.85;;;3.25;;
78169;SDS011;67412;49.892;14.490;2024-01-15T04:50:23;14.82;;;4.93;;
78169;SDS011;67412;49.892;14.490;2024-01-15T04:52:49;11.18;;;3.83;;
78169;SDS011;67412;49.892;14.490;2024-01-15T04:55:15;13.25;;;5.18;;
78169;SDS011;67412;49.892;14.490;2024-01-15T04:57:40;9.20;;;2.97;;
78169;SDS011;67412;49.892;14.490;2024-01-15T05:00:07;14.30;;;5.32;;
78169;SDS011;67412;49.892;14.490;2024-01-15T05:02:33;12.40;;;4.18;;
78169;SDS011;67412;49.892;14.490;2024-01-15T05:04:58;14.50;;;4.82;;
78169;SDS011;67412;49.892;14.490;2024-01-15T05:07:23;16.85;;;4.43;;
78169;SDS011;67412;49.892;14.490;2024-01-15T05:09:49;8.38;;;2.97;;
78169;SDS011;67412;49.892;14.490;2024-01-15T05:12:14;9.50;;;4.32;;
78169;SDS011;67412;49.892;14.490;2024-01-15T05:14:39;15.57;;;3.38;;
78169;SDS011;67412;49.892;14.490;2024-01-15T05:17:05;11.00;;;4.10;;
78169;SDS011;67412;49.892;14.490;2024-01-15T05:19:30;8.35;;;2.75;;
78169;SDS011;67412;49.892;14.490;2024-01-15T05:21:55;9.70;;;3.28;;
78169;SDS011;67412;49.892;14.490;2024-01-15T05:24:21;10.70;;;3.90;;
78169;SDS011;67412;49.892;14.490;2024-01-15T05:26:46;10.27;;;3.28;;
78169;SDS011;67412;49.892;14.490;2024-01-15T05:29:12;14.43;;;4.38;;
78169;SDS011;67412;49.892;14.490;2024-01-15T05:31:37;15.45;;;4.55;;
78169;SDS011;67412;49.892;14.490;2024-01-15T05:34:02;10.30;;;4.35;;
78169;SDS011;67412;49.892;14.490;2024-01-15T05:36:28;13.93;;;4.32;;
78169;SDS011;67412;49.892;14.490;2024-01-15T05:38:53;13.32;;;3.53;;
78169;SDS011;67412;49.892;14.490;2024-01-15T05:41:18;10.95;;;3.20;;
78169;SDS011;67412;49.892;14.490;2024-01-15T05:43:43;9.88;;;4.50;;
78169;SDS011;67412;49.892;14.490;2024-01-15T05:46:09;9.32;;;4.13;;
78169;SDS011;67412;49.892;14.490;2024-01-15T05:48:34;7.28;;;2.95;;
78169;SDS011;67412;49.892;14.490;2024-01-15T05:50:59;10.35;;;3.75;;
78169;SDS011;67412;49.892;14.490;2024-01-15T05:53:25;11.13;;;3.90;;
78169;SDS011;67412;49.892;14.490;2024-01-15T05:55:50;10.38;;;4.65;;
78169;SDS011;67412;49.892;14.490;2024-01-15T05:58:15;7.45;;;3.58;;
78169;SDS011;67412;49.892;14.490;2024-01-15T06:00:41;15.80;;;5.15;;
78169;SDS011;67412;49.892;14.490;2024-01-15T06:03:06;11.35;;;4.05;;
78169;SDS011;67412;49.892;14.490;2024-01-15T06:05:31;15.15;;;5.72;;
78169;SDS011;67412;49.892;14.490;2024-01-15T06:07:57;6.47;;;2.47;;
78169;SDS011;67412;49.892;14.490;2024-01-15T06:10:22;17.92;;;5.80;;
78169;SDS011;67412;49.892;14.490;2024-01-15T06:12:47;8.07;;;2.80;;
78169;SDS011;67412;49.892;14.490;2024-01-15T06:15:13;12.60;;;4.22;;
78169;SDS011;67412;49.892;14.490;2024-01-15T06:17:38;11.88;;;4.45;;
78169;SDS011;67412;49.892;14.490;2024-01-15T06:20:04;9.05;;;3.00;;
78169;SDS011;67412;49.892;14.490;2024-01-15T06:22:30;7.90;;;2.45;;
78169;SDS011;67412;49.892;14.490;2024-01-15T06:24:55;16.65;;;6.13;;
78169;SDS011;67412;49.892;14.490;2024-01-15T06:27:20;8.27;;;2.83;;
78169;SDS011;67412;49.892;14.490;2024-01-15T06:29:46;12.13;;;3.40;;
78169;SDS011;67412;49.892;14.490;2024-01-15T06:32:14;11.25;;;4.03;;
78169;SDS011;67412;49.892;14.490;2024-01-15T06:34:39;13.88;;;3.42;;
78169;SDS011;67412;49.892;14.490;2024-01-15T06:37:05;9.15;;;3.28;;
78169;SDS011;67412;49.892;14.490;2024-01-15T06:39:31;13.43;;;3.55;;
78169;SDS011;67412;49.892;14.490;2024-01-15T06:41:56;17.10;;;4.43;;
78169;SDS011;67412;49.892;14.490;2024-01-15T06:44:22;11.02;;;4.28;;
78169;SDS011;67412;49.892;14.490;2024-01-15T06:46:47;13.52;;;4.07;;
78169;SDS011;67412;49.892;14.490;2024-01-15T06:49:12;14.48;;;4.20;;
78169;SDS011;67412;49.892;14.490;2024-01-15T06:51:38;10.73;;;4.90;;
78169;SDS011;67412;49.892;14.490;2024-01-15T06:54:04;13.95;;;4.93;;
78169;SDS011;67412;49.892;14.490;2024-01-15T06:56:29;14.00;;;4.95;;
78169;SDS011;67412;49.892;14.490;2024-01-15T06:58:55;16.92;;;4.63;;
78169;SDS011;67412;49.892;14.490;2024-01-15T07:01:20;8.40;;;3.47;;
78169;SDS011;67412;49.892;14.490;2024-01-15T07:03:45;8.02;;;3.00;;
78169;SDS011;67412;49.892;14.490;2024-01-15T07:06:11;12.43;;;4.40;;
78169;SDS011;67412;49.892;14.490;2024-01-15T07:08:37;8.73;;;3.38;;
78169;SDS011;67412;49.892;14.490;2024-01-15T07:11:03;11.32;;;4.03;;
78169;SDS011;67412;49.892;14.490;2024-01-15T07:13:29;9.45;;;2.60;;
78169;SDS011;67412;49.892;14.490;2024-01-15T07:15:55;17.33;;;6.30;;
78169;SDS011;67412;49.892;14.490;2024-01-15T07:18:20;13.23;;;4.25;;
78169;SDS011;67412;49.892;14.490;2024-01-15T07:20:45;16.20;;;5.70;;
78169;SDS011;67412;49.892;14.490;2024-01-15T07:23:11;13.40;;;3.33;;
78169;SDS011;67412;49.892;14.490;2024-01-15T07:25:37;16.25;;;5.28;;
78169;SDS011;67412;49.892;14.490;2024-01-15T07:28:02;12.98;;;4.68;;
78169;SDS011;67412;49.892;14.490;2024-01-15T07:30:28;12.35;;;4.97;;
78169;SDS011;67412;49.892;14.490;2024-01-15T07:32:54;13.77;;;4.25;;
78169;SDS011;67412;49.892;14.490;2024-01-15T07:35:19;16.42;;;6.47;;
78169;SDS011;67412;49.892;14.490;2024-01-15T07:37:44;14.82;;;4.57;;
78169;SDS011;67412;49.892;14.490;2024-01-15T07:40:10;12.10;;;3.58;;
78169;SDS011;67412;49.892;14.490;2024-01-15T07:42:35;8.88;;;4.07;;
78169;SDS011;67412;49.892;14.490;2024-01-15T07:45:01;12.82;;;4.00;;
78169;SDS011;67412;49.892;14.490;2024-01-15T07:47:26;17.02;;;6.53;;
78169;SDS011;67412;49.892;14.490;2024-01-15T07:49:52;13.70;;;4.05;;
78169;SDS011;67412;49.892;14.490;2024-01-15T07:52:18;13.07;;;4.70;;
78169;SDS011;67412;49.892;14.490;2024-01-15T07:54:44;11.88;;;3.67;;
78169;SDS011;67412;49.892;14.490;2024-01-15T07:57:10;8.55;;;2.58;;
78169;SDS011;67412;49.892;14.490;2024-01-15T07:59:35;12.63;;;4.10;;
78169;SDS011;67412;49.892;14.490;2024-01-15T08:02:00;11.02;;;4.43;;
78169;SDS011;67412;49.892;14.490;2024-01-15T08:04:26;13.43;;;4.88;;
78169;SDS011;67412;49.892;14.490;2024-01-15T08:06:51;12.52;;;2.95;;
78169;SDS011;67412;49.892;14.490;2024-01-15T08:09:16;6.93;;;2.90;;
78169;SDS011;67412;49.892;14.490;2024-01-15T08:11:42;12.95;;;3.50;;
78169;SDS011;67412;49.892;14.490;2024-01-15T08:14:08;11.73;;;3.53;;
78169;SDS011;67412;49.892;14.490;2024-01-15T08:16:35;8.88;;;2.95;;
78169;SDS011;67412;49.892;14.490;2024-01-15T08:19:01;5.85;;;2.45;;
78169;SDS011;67412;49.892;14.490;2024-01-15T08:21:27;12.88;;;4.00;;
78169;SDS011;67412;49.892;14.490;2024-01-15T08:23:57;14.48;;;6.03;;
78169;SDS011;67412;49.892;14.490;2024-01-15T08:26:25;13.40;;;3.90;;
78169;SDS011;67412;49.892;14.490;2024-01-15T08:28:51;8.95;;;3.80;;
78169;SDS011;67412;49.892;14.490;2024-01-15T08:31:16;11.77;;;4.53;;
78169;SDS011;67412;49.892;14.490;2024-01-15T08:33:42;8.77;;;3.50;;
78169;SDS011;67412;49.892;14.490;2024-01-15T08:36:07;10.02;;;3.78;;
78169;SDS011;67412;49.892;14.490;2024-01-15T08:38:34;8.40;;;2.95;;
78169;SDS011;67412;49.892;14.490;2024-01-15T08:40:59;8.95;;;3.15;;
78169;SDS011;67412;49.892;14.490;2024-01-15T08:43:25;10.48;;;4.32;;
78169;SDS011;67412;49.892;14.490;2024-01-15T08:45:51;13.88;;;4.45;;
78169;SDS011;67412;49.892;14.490;2024-01-15T08:48:17;12.30;;;3.88;;
78169;SDS011;67412;49.892;14.490;2024-01-15T08:50:42;9.27;;;2.75;;
78169;SDS011;67412;49.892;14.490;2024-01-15T08:53:07;10.07;;;3.28;;
78169;SDS011;67412;49.892;14.490;2024-01-15T08:55:33;8.38;;;2.92;;
78169;SDS011;67412;49.892;14.490;2024-01-15T08:57:58;12.30;;;3.15;;
78169;SDS011;67412;49.892;14.490;2024-01-15T09:00:24;5.43;;;1.98;;
78169;SDS011;67412;49.892;14.490;2024-01-15T09:02:49;9.02;;;2.88;;
78169;SDS011;67412;49.892;14.490;2024-01-15T09:05:15;12.05;;;3.97;;
78169;SDS011;67412;49.892;14.490;2024-01-15T09:07:40;21.02;;;4.85;;
78169;SDS011;67412;49.892;14.490;2024-01-15T09:10:05;13.45;;;4.18;;
78169;SDS011;67412;49.892;14.490;2024-01-15T09:12:31;9.43;;;3.13;;
78169;SDS011;67412;49.892;14.490;2024-01-15T09:14:57;14.43;;;4.50;;
78169;SDS011;67412;49.892;14.490;2024-01-15T09:17:22;12.82;;;4.43;;
78169;SDS011;67412;49.892;14.490;2024-01-15T09:19:50;11.25;;;3.47;;
78169;SDS011;67412;49.892;14.490;2024-01-15T09:22:15;14.75;;;4.45;;
78169;SDS011;67412;49.892;14.490;2024-01-15T09:24:44;9.50;;;2.65;;
78169;SDS011;67412;49.892;14.490;2024-01-15T09:27:10;10.73;;;3.25;;
78169;SDS011;67412;49.892;14.490;2024-01-15T09:29:36;9.65;;;2.42;;
78169;SDS011;67412;49.892;14.490;2024-01-15T09:32:06;8.88;;;3.58;;
78169;SDS011;67412;49.892;14.490;2024-01-15T09:34:32;7.25;;;2.38;;
78169;SDS011;67412;49.892;14.490;2024-01-15T09:36:58;6.47;;;2.28;;
78169;SDS011;67412;49.892;14.490;2024-01-15T09:39:25;8.60;;;2.72;;
78169;SDS011;67412;49.892;14.490;2024-01-15T09:41:51;8.77;;;2.80;;
78169;SDS011;67412;49.892;14.490;2024-01-15T09:44:18;11.57;;;3.70;;
78169;SDS011;67412;49.892;14.490;2024-01-15T09:46:44;10.18;;;3.05;;
78169;SDS011;67412;49.892;14.490;2024-01-15T09:49:11;8.15;;;2.85;;
78169;SDS011;67412;49.892;14.490;2024-01-15T09:51:37;7.97;;;2.50;;
78169;SDS011;67412;49.892;14.490;2024-01-15T09:54:04;11.73;;;4.13;;
78169;SDS011;67412;49.892;14.490;2024-01-15T09:56:30;8.65;;;3.28;;
78169;SDS011;67412;49.892;14.490;2024-01-15T09:58:56;6.03;;;2.20;;
78169;SDS011;67412;49.892;14.490;2024-01-15T10:01:25;6.38;;;2.72;;
78169;SDS011;67412;49.892;14.490;2024-01-15T10:03:51;4.28;;;1.80;;
78169;SDS011;67412;49.892;14.490;2024-01-15T10:06:18;8.00;;;1.83;;
78169;SDS011;67412;49.892;14.490;2024-01-15T10:11:15;7.72;;;2.53;;
78169;SDS011;67412;49.892;14.490;2024-01-15T10:13:43;7.28;;;2.95;;
78169;SDS011;67412;49.892;14.490;2024-01-15T10:16:09;5.80;;;2.35;;
78169;SDS011;67412;49.892;14.490;2024-01-15T10:18:34;8.10;;;2.40;;
78169;SDS011;67412;49.892;14.490;2024-01-15T10:21:02;6.30;;;2.20;;
78169;SDS011;67412;49.892;14.490;2024-01-15T10:23:28;13.18;;;3.92;;
78169;SDS011;67412;49.892;14.490;2024-01-15T10:25:53;9.77;;;2.38;;
78169;SDS011;67412;49.892;14.490;2024-01-15T10:28:19;8.68;;;3.00;;
78169;SDS011;67412;49.892;14.490;2024-01-15T10:30:45;10.32;;;3.85;;
78169;SDS011;67412;49.892;14.490;2024-01-15T10:33:11;8.63;;;2.30;;
78169;SDS011;67412;49.892;14.490;2024-01-15T10:35:37;6.50;;;1.95;;
78169;SDS011;67412;49.892;14.490;2024-01-15T10:38:03;7.72;;;2.83;;
78169;SDS011;67412;49.892;14.490;2024-01-15T10:40:30;9.50;;;2.83;;
78169;SDS011;67412;49.892;14.490;2024-01-15T10:42:56;6.43;;;2.38;;
78169;SDS011;67412;49.892;14.490;2024-01-15T10:45:22;14.10;;;2.75;;
78169;SDS011;67412;49.892;14.490;2024-01-15T10:47:47;3.63;;;2.03;;
78169;SDS011;67412;49.892;14.490;2024-01-15T10:50:14;5.82;;;1.50;;
78169;SDS011;67412;49.892;14.490;2024-01-15T10:52:39;5.53;;;2.03;;
78169;SDS011;67412;49.892;14.490;2024-01-15T10:55:09;6.32;;;2.47;;
78169;SDS011;67412;49.892;14.490;2024-01-15T10:57:36;7.40;;;2.38;;
78169;SDS011;67412;49.892;14.490;2024-01-15T11:00:02;5.57;;;1.65;;
78169;SDS011;67412;49.892;14.490;2024-01-15T11:02:31;8.95;;;2.28;;
78169;SDS011;67412;49.892;14.490;2024-01-15T11:07:23;5.70;;;1.90;;
78169;SDS011;67412;49.892;14.490;2024-01-15T11:09:50;7.90;;;1.88;;
78169;SDS011;67412;49.892;14.490;2024-01-15T11:12:16;11.07;;;3.63;;
78169;SDS011;67412;49.892;14.490;2024-01-15T11:14:46;9.07;;;3.70;;
78169;SDS011;67412;49.892;14.490;2024-01-15T11:17:12;6.63;;;2.08;;
78169;SDS011;67412;49.892;14.490;2024-01-15T11:22:49;8.25;;;2.53;;
78169;SDS011;67412;49.892;14.490;2024-01-15T11:25:18;5.22;;;1.95;;
78169;SDS011;67412;49.892;14.490;2024-01-15T11:27:44;8.32;;;2.40;;
78169;SDS011;67412;49.892;14.490;2024-01-15T11:30:12;7.70;;;2.00;;
78169;SDS011;67412;49.892;14.490;2024-01-15T11:32:39;7.65;;;2.03;;
78169;SDS011;67412;49.892;14.490;2024-01-15T11:35:08;7.13;;;2.15;;
78169;SDS011;67412;49.892;14.490;2024-01-15T11:42:58;4.22;;;1.55;;
78169;SDS011;67412;49.892;14.490;2024-01-15T11:45:24;9.02;;;2.40;;
78169;SDS011;67412;49.892;14.490;2024-01-15T11:50:41;8.55;;;2.05;;
78169;SDS011;67412;49.892;14.490;2024-01-15T11:55:41;3.15;;;1.10;;
78169;SDS011;67412;49.892;14.490;2024-01-15T11:58:10;6.40;;;2.22;;
78169;SDS011;67412;49.892;14.490;2024-01-15T12:00:39;5.55;;;1.95;;
78169;SDS011;67412;49.892;14.490;2024-01-15T12:03:08;4.20;;;1.90;;
78169;SDS011;67412;49.892;14.490;2024-01-15T12:05:36;9.07;;;2.15;;
78169;SDS011;67412;49.892;14.490;2024-01-15T12:08:02;3.33;;;1.35;;
78169;SDS011;67412;49.892;14.490;2024-01-15T12:10:27;7.30;;;2.20;;
78169;SDS011;67412;49.892;14.490;2024-01-15T12:15:24;5.20;;;2.22;;
78169;SDS011;67412;49.892;14.490;2024-01-15T12:17:50;6.68;;;1.95;;
78169;SDS011;67412;49.892;14.490;2024-01-15T12:20:15;5.35;;;1.92;;
78169;SDS011;67412;49.892;14.490;2024-01-15T12:22:43;6.13;;;2.05;;
78169;SDS011;67412;49.892;14.490;2024-01-15T12:25:09;6.57;;;2.38;;
78169;SDS011;67412;49.892;14.490;2024-01-15T12:27:34;6.63;;;2.30;;
78169;SDS011;67412;49.892;14.490;2024-01-15T12:30:00;6.45;;;2.15;;
78169;SDS011;67412;49.892;14.490;2024-01-15T12:32:25;4.00;;;1.27;;
78169;SDS011;67412;49.892;14.490;2024-01-15T12:34:51;6.00;;;2.15;;
78169;SDS011;67412;49.892;14.490;2024-01-15T12:37:19;11.45;;;2.53;;
78169;SDS011;67412;49.892;14.490;2024-01-15T12:39:45;7.65;;;2.13;;
78169;SDS011;67412;49.892;14.490;2024-01-15T12:42:11;7.90;;;3.13;;
78169;SDS011;67412;49.892;14.490;2024-01-15T12:44:36;6.10;;;1.90;;
78169;SDS011;67412;49.892;14.490;2024-01-15T12:47:05;4.80;;;1.52;;
78169;SDS011;67412;49.892;14.490;2024-01-15T12:49:31;5.40;;;2.00;;
78169;SDS011;67412;49.892;14.490;2024-01-15T12:51:57;6.50;;;2.40;;
78169;SDS011;67412;49.892;14.490;2024-01-15T12:54:23;6.22;;;1.90;;
78169;SDS011;67412;49.892;14.490;2024-01-15T12:56:49;8.40;;;2.20;;
78169;SDS011;67412;49.892;14.490;2024-01-15T12:59:15;5.82;;;1.80;;
78169;SDS011;67412;49.892;14.490;2024-01-15T13:01:41;5.40;;;1.67;;
78169;SDS011;67412;49.892;14.490;2024-01-15T13:04:06;9.20;;;2.35;;
78169;SDS011;67412;49.892;14.490;2024-01-15T13:06:33;8.60;;;2.63;;
78169;SDS011;67412;49.892;14.490;2024-01-15T13:08:59;5.45;;;1.88;;
78169;SDS011;67412;49.892;14.490;2024-01-15T13:11:25;5.40;;;1.90;;
78169;SDS011;67412;49.892;14.490;2024-01-15T13:13:50;4.50;;;2.00;;
78169;SDS011;67412;49.892;14.490;2024-01-15T13:16:16;6.35;;;2.05;;
78169;SDS011;67412;49.892;14.490;2024-01-15T13:18:41;3.80;;;1.50;;
78169;SDS011;67412;49.892;14.490;2024-01-15T13:21:06;7.72;;;2.10;;
78169;SDS011;67412;49.892;14.490;2024-01-15T13:23:32;4.30;;;1.42;;
78169;SDS011;67412;49.892;14.490;2024-01-15T13:25:57;3.55;;;1.40;;
78169;SDS011;67412;49.892;14.490;2024-01-15T13:28:23;3.78;;;1.35;;
78169;SDS011;67412;49.892;14.490;2024-01-15T13:30:50;9.88;;;1.80;;
78169;SDS011;67412;49.892;14.490;2024-01-15T13:33:15;4.03;;;1.27;;
78169;SDS011;67412;49.892;14.490;2024-01-15T13:35:40;6.53;;;1.92;;
78169;SDS011;67412;49.892;14.490;2024-01-15T13:38:06;5.75;;;1.67;;
78169;SDS011;67412;49.892;14.490;2024-01-15T13:40:31;3.90;;;1.30;;
78169;SDS011;67412;49.892;14.490;2024-01-15T13:42:56;3.97;;;1.77;;
78169;SDS011;67412;49.892;14.490;2024-01-15T13:45:22;3.80;;;1.40;;
78169;SDS011;67412;49.892;14.490;2024-01-15T13:47:49;4.28;;;0.98;;
78169;SDS011;67412;49.892;14.490;2024-01-15T13:50:14;4.70;;;1.42;;
78169;SDS011;67412;49.892;14.490;2024-01-15T13:52:39;7.03;;;1.70;;
78169;SDS011;67412;49.892;14.490;2024-01-15T13:55:05;4.35;;;1.52;;
78169;SDS011;67412;49.892;14.490;2024-01-15T13:57:31;5.65;;;1.63;;
78169;SDS011;67412;49.892;14.490;2024-01-15T13:59:56;7.03;;;1.95;;
78169;SDS011;67412;49.892;14.490;2024-01-15T14:02:22;6.43;;;2.17;;
78169;SDS011;67412;49.892;14.490;2024-01-15T14:04:47;7.88;;;1.77;;
78169;SDS011;67412;49.892;14.490;2024-01-15T14:07:13;4.85;;;1.88;;
78169;SDS011;67412;49.892;14.490;2024-01-15T14:09:39;3.60;;;1.38;;
78169;SDS011;67412;49.892;14.490;2024-01-15T14:12:04;5.05;;;2.05;;
78169;SDS011;67412;49.892;14.490;2024-01-15T14:14:31;4.78;;;1.90;;
78169;SDS011;67412;49.892;14.490;2024-01-15T14:16:56;6.00;;;2.13;;
78169;SDS011;67412;49.892;14.490;2024-01-15T14:19:21;9.07;;;1.80;;
78169;SDS011;67412;49.892;14.490;2024-01-15T14:21:47;3.42;;;1.20;;
78169;SDS011;67412;49.892;14.490;2024-01-15T14:24:12;7.15;;;1.85;;
78169;SDS011;67412;49.892;14.490;2024-01-15T14:26:38;5.70;;;1.40;;
78169;SDS011;67412;49.892;14.490;2024-01-15T14:29:03;7.10;;;2.05;;
78169;SDS011;67412;49.892;14.490;2024-01-15T14:31:28;7.05;;;2.15;;
78169;SDS011;67412;49.892;14.490;2024-01-15T14:33:54;6.78;;;2.20;;
78169;SDS011;67412;49.892;14.490;2024-01-15T14:36:20;4.40;;;1.35;;
78169;SDS011;67412;49.892;14.490;2024-01-15T14:38:45;5.45;;;1.80;;
78169;SDS011;67412;49.892;14.490;2024-01-15T14:41:11;2.85;;;1.40;;